Bettles Field, AK (99726)

9:34 AM AKDT on July 24, 2016 (GMT -0800)
Coldfoot Airport | | Change Station

Elev 1100 ft 67.25 °N, 150.20 °W | Updated 13 minutes ago

Scattered Clouds
Scattered Clouds
52.7 °F
Feels Like 52.7 °F
N
0.0
Wind Variable Wind from SE

Today
High -- | Low -- °F
--% Chance of Precip.
Yesterday
High -- | Low -- °F
Precip. -- in
Pressure 29.78 in
Visibility 10.0 miles
Clouds Few 4200 ft
Scattered Clouds 7500 ft
Scattered Clouds 11000 ft
Dew Point 42 °F
Humidity 68%
Rainfall 0.00 in
Snow Depth Not available.
3:52 AM 0:21 AM
Waning Gibbous, 74% visible
METAR PABT 241653Z 05009G19KT 10SM FEW042 SCT075 SCT110 12/07 A2975 RMK AO2 SLP082 T01220067 $
Pressure 29.78 in
Visibility 10.0 miles
Clouds Few 4200 ft
Scattered Clouds 7500 ft
Scattered Clouds 11000 ft
Dew Point 42 °F
Humidity 68%
Rainfall 0.00 in
Snow Depth Not available.
3:52 AM 0:21 AM
Waning Gibbous, 74% visible
METAR PABT 241653Z 05009G19KT 10SM FEW042 SCT075 SCT110 12/07 A2975 RMK AO2 SLP082 T01220067 $

10-Day Weather Forecast

Almanac

Astronomy

Jul. 24, 2016 Rise Set
Actual Time
Civil Twilight
Nautical Twilight
Astronomical Twilight
Moon
Length of Visible Light
Length of Day
Tomorrow will be .
, % of the Moon is Illuminated

Today's Extremes

State Highs State Lows

Community

WunderPhotos

Upload Photos

1,927,132 photos uploaded!

WunderBlog® & News

Nearby

Air Quality

  Air Quality AQ Index Pollutant
Not available.

Snow Depth

Station Depth Elevation

Earthquake Activity

City Distance Mag. Time & Date
Minimum magnitude displayed is 2.5.

Coastal Water Temperatures

Place Temperature

Stations

Nearby Weather Stations

Station Location Temp. Windchill Dew Point Humidity Wind Precip. Elev Updated Type
                   

Watches & Warnings

There are currently no watches in effect.